Terminal Aerodrome Forecast
Issued by NWS Sterling, VA

Current Version | Previous Version | Text Only | Print | Product List | Glossary Off
Versions: 1 2 3 4 5 6 7 8 9 10 11 12 13 14 15 16 17 18 19 20 21 22 23 24 25 26 27 28

324
FTUS41 KLWX 212127 AAC
TAFDCA
TAF AMD
KDCA 212127Z 2121/2218 35010KT 2SM -DZ BR BKN008 OVC012
     FM220100 36009KT 3SM -SHRA BR OVC008
     FM220800 36005KT 5SM -SHRA BR OVC008
     FM221600 35007KT 3SM -SHRA OVC020=

USA.gov is the U.S. government's official web portal to all federal, state and local government web resources and services.